Time;durP1;ratioP1;P1;durP2;ratioP2;P2;SDS_P1;SDS_P2;PMS_P1;PMS_P2;Temp;Humidity;BMP_temperature;BMP_pressure;BME280_temperature;BME280_humidity;BME280_pressure;Samples;Min_cycle;Max_cycle;Signal;HPM_P1;HPM_P2
2021/06/09 00:00:33;;;;;;;18.63;16.83;;;22.00;99.90;;;;;;4956665;28;21065;-82
2021/06/09 00:03:00;;;;;;;17.77;16.17;;;22.00;99.90;;;;;;4956092;28;20202;-82
2021/06/09 00:05:26;;;;;;;17.10;15.47;;;21.90;99.90;;;;;;4963727;29;20183;-82
2021/06/09 00:07:51;;;;;;;16.73;15.10;;;22.00;99.90;;;;;;4955365;29;20522;-82
2021/06/09 00:10:18;;;;;;;18.10;16.10;;;21.90;99.90;;;;;;4958228;28;20479;-82
2021/06/09 00:12:44;;;;;;;17.30;15.50;;;21.80;99.90;;;;;;4948463;29;20439;-84
2021/06/09 00:15:12;;;;;;;16.90;15.30;;;21.70;99.90;;;;;;4945674;29;20459;-84
2021/06/09 00:17:39;;;;;;;17.83;16.03;;;21.60;99.90;;;;;;4940484;28;20218;-84
2021/06/09 00:20:08;;;;;;;19.57;17.67;;;21.70;99.90;;;;;;4945039;28;20515;-83
2021/06/09 00:22:34;;;;;;;17.53;15.93;;;21.70;99.90;;;;;;4947520;28;21178;-82
2021/06/09 00:25:00;;;;;;;18.37;16.67;;;21.50;99.90;;;;;;4948353;28;20442;-82
2021/06/09 00:27:27;;;;;;;18.37;16.43;;;21.50;99.90;;;;;;4944905;29;20558;-82
2021/06/09 00:29:53;;;;;;;18.73;16.23;;;21.60;99.90;;;;;;4951047;29;20219;-82
2021/06/09 00:32:19;;;;;;;18.57;16.63;;;21.50;99.90;;;;;;4950818;29;20439;-83
2021/06/09 00:34:47;;;;;;;18.17;16.37;;;21.50;99.90;;;;;;4946653;28;20486;-84
2021/06/09 00:37:13;;;;;;;17.97;16.17;;;21.20;99.90;;;;;;4951679;28;20199;-83
2021/06/09 00:39:39;;;;;;;17.37;15.63;;;21.30;99.90;;;;;;4932834;29;20455;-83
2021/06/09 00:42:05;;;;;;;17.00;15.37;;;21.20;99.90;;;;;;4954029;29;20305;-83
2021/06/09 00:44:31;;;;;;;19.30;17.40;;;21.30;99.90;;;;;;4953147;29;20207;-82
2021/06/09 00:46:57;;;;;;;18.13;16.30;;;21.20;99.90;;;;;;4946557;29;20462;-84
2021/06/09 00:49:23;;;;;;;15.73;14.13;;;21.30;99.90;;;;;;4949784;29;20535;-84
2021/06/09 00:51:48;;;;;;;18.80;16.50;;;21.30;99.90;;;;;;4962709;28;20195;-84
2021/06/09 00:54:14;;;;;;;18.20;16.13;;;21.40;99.90;;;;;;4950568;28;20239;-84
2021/06/09 00:56:41;;;;;;;19.07;17.17;;;21.40;99.90;;;;;;4946221;28;20203;-83
2021/06/09 00:59:07;;;;;;;17.90;16.00;;;21.40;99.90;;;;;;4952315;28;20243;-84
2021/06/09 01:01:36;;;;;;;20.27;17.37;;;21.30;99.90;;;;;;4949080;29;20481;-83
2021/06/09 01:04:04;;;;;;;20.13;17.37;;;21.00;99.90;;;;;;4950867;29;20582;-82
2021/06/09 01:06:30;;;;;;;17.57;15.67;;;21.10;99.90;;;;;;4947609;28;20446;-83
2021/06/09 01:08:56;;;;;;;18.43;16.53;;;21.20;99.90;;;;;;4943989;29;20891;-83
2021/06/09 01:11:25;;;;;;;19.23;17.23;;;21.10;99.90;;;;;;4944834;29;20193;-83
2021/06/09 01:13:51;;;;;;;19.50;16.37;;;21.10;99.90;;;;;;4942915;29;20211;-84
2021/06/09 01:16:18;;;;;;;20.00;16.20;;;21.20;99.90;;;;;;4948531;28;21856;-84
2021/06/09 01:18:45;;;;;;;20.63;18.17;;;21.10;99.90;;;;;;4949967;29;20455;-84
2021/06/09 01:21:11;;;;;;;20.67;15.80;;;21.00;99.90;;;;;;4942138;29;20459;-83
2021/06/09 01:23:38;;;;;;;19.33;17.53;;;20.90;99.90;;;;;;4950470;29;20427;-82
2021/06/09 01:26:05;;;;;;;19.97;17.87;;;20.80;99.90;;;;;;4951015;28;21153;-82
2021/06/09 01:28:33;;;;;;;18.00;16.30;;;20.70;99.90;;;;;;4954831;28;20467;-82
2021/06/09 01:30:59;;;;;;;19.27;17.30;;;20.50;99.90;;;;;;4955842;28;20478;-82
2021/06/09 01:33:24;;;;;;;20.97;18.73;;;20.60;99.90;;;;;;4948619;29;20466;-82
2021/06/09 01:35:52;;;;;;;20.60;18.50;;;20.40;99.90;;;;;;4958422;29;20196;-81
2021/06/09 01:38:18;;;;;;;19.63;17.57;;;20.40;99.90;;;;;;4955967;28;20696;-81
2021/06/09 01:40:44;;;;;;;18.07;16.20;;;20.50;99.90;;;;;;4956559;29;20465;-81
2021/06/09 01:43:10;;;;;;;17.50;15.60;;;20.70;99.90;;;;;;4959746;28;20435;-84
2021/06/09 01:45:38;;;;;;;19.17;17.17;;;21.00;99.90;;;;;;4953726;28;20443;-84
2021/06/09 01:48:06;;;;;;;20.33;18.23;;;20.90;99.90;;;;;;4946515;28;20564;-82
2021/06/09 01:50:32;;;;;;;18.87;16.90;;;20.70;99.90;;;;;;4952935;29;20467;-82
2021/06/09 01:53:02;;;;;;;20.50;18.40;;;20.80;99.90;;;;;;4966473;28;20445;-81
2021/06/09 01:55:29;;;;;;;18.70;16.70;;;20.80;99.90;;;;;;4951994;28;20457;-85
2021/06/09 01:57:55;;;;;;;20.00;18.10;;;20.90;99.90;;;;;;4958521;29;20431;-84
2021/06/09 02:00:31;;;;;;;24.10;19.30;;;20.70;99.90;;;;;;4958289;28;20711;-84
2021/06/09 02:03:01;;;;;;;21.97;19.07;;;20.50;99.90;;;;;;4944563;29;20222;-84
2021/06/09 02:05:32;;;;;;;22.60;20.40;;;20.30;99.90;;;;;;4949232;28;20451;-82
2021/06/09 02:08:00;;;;;;;30.00;19.23;;;20.30;99.90;;;;;;4953616;28;20514;-82
2021/06/09 02:10:27;;;;;;;22.03;19.27;;;20.30;99.90;;;;;;4958459;29;20481;-82
2021/06/09 02:12:56;;;;;;;24.90;21.60;;;20.50;99.90;;;;;;4952408;29;20498;-83
2021/06/09 02:15:23;;;;;;;22.77;20.37;;;20.20;99.90;;;;;;4951673;28;20443;-85
2021/06/09 02:18:08;;;;;;;20.63;18.53;;;20.10;99.90;;;;;;4956817;29;20456;-83
2021/06/09 02:20:35;;;;;;;22.13;19.90;;;20.40;99.90;;;;;;4962541;28;20427;-83
2021/06/09 02:23:01;;;;;;;21.80;19.70;;;20.40;99.90;;;;;;4957014;29;20457;-83
2021/06/09 02:25:28;;;;;;;21.43;19.20;;;20.40;99.90;;;;;;4954458;29;20443;-84
2021/06/09 02:27:54;;;;;;;23.17;20.77;;;20.30;99.90;;;;;;4951260;29;20225;-85
2021/06/09 02:30:20;;;;;;;22.80;20.40;;;20.40;99.90;;;;;;4965135;28;20473;-84
2021/06/09 02:32:47;;;;;;;23.80;21.30;;;20.30;99.90;;;;;;4947609;28;20511;-82
2021/06/09 02:35:19;;;;;;;23.40;20.47;;;20.60;99.90;;;;;;4949940;28;20436;-82
2021/06/09 02:37:49;;;;;;;23.57;20.47;;;20.80;99.90;;;;;;4947295;28;20557;-82
2021/06/09 02:40:16;;;;;;;25.30;20.93;;;20.80;99.90;;;;;;4954240;28;20515;-83
2021/06/09 02:42:42;;;;;;;24.30;20.90;;;20.70;99.90;;;;;;4954059;28;20980;-86
2021/06/09 02:45:14;;;;;;;23.40;20.00;;;20.60;99.90;;;;;;4955064;28;20431;-86
2021/06/09 02:47:47;;;;;;;24.50;21.93;;;20.50;99.90;;;;;;4951133;29;20207;-87
2021/06/09 02:50:16;;;;;;;23.20;20.80;;;20.60;99.90;;;;;;4947316;28;20486;-85
2021/06/09 02:53:09;;;;;;;25.03;20.97;;;20.60;99.90;;;;;;4946140;29;20446;-85
2021/06/09 02:56:05;;;;;;;23.10;20.60;;;20.80;99.90;;;;;;4951581;29;20451;-85
2021/06/09 02:59:07;;;;;;;22.23;20.07;;;20.80;99.90;;;;;;4963877;28;20507;-85
2021/06/09 03:01:50;;;;;;;21.20;18.90;;;20.70;99.90;;;;;;4946163;29;20439;-85
2021/06/09 03:04:32;;;;;;;22.77;20.37;;;20.80;99.90;;;;;;4964637;28;20447;-85
2021/06/09 03:07:26;;;;;;;23.23;20.93;;;21.00;99.90;;;;;;4950374;28;20471;-82
2021/06/09 03:10:30;;;;;;;21.37;17.27;;;21.00;99.90;;;;;;4952355;29;20534;-82
2021/06/09 03:13:07;;;;;;;21.17;18.97;;;21.10;99.90;;;;;;4952020;28;20521;-85
2021/06/09 03:15:49;;;;;;;20.53;18.53;;;20.90;99.90;;;;;;4946051;28;20491;-81
2021/06/09 03:18:20;;;;;;;22.27;19.97;;;20.70;99.90;;;;;;4957499;28;20483;-86
2021/06/09 03:20:54;;;;;;;22.60;20.30;;;20.80;99.90;;;;;;4965854;28;20454;-86
2021/06/09 03:23:50;;;;;;;22.43;19.97;;;20.90;99.90;;;;;;4962887;28;20429;-85
2021/06/09 03:26:35;;;;;;;22.90;20.43;;;20.90;99.90;;;;;;4962158;28;20566;-85
2021/06/09 03:29:07;;;;;;;21.03;18.80;;;21.10;99.90;;;;;;4963802;28;20522;-85
2021/06/09 03:32:07;;;;;;;24.20;20.80;;;20.90;99.90;;;;;;4948470;28;20784;-84
2021/06/09 03:34:39;;;;;;;20.87;18.80;;;20.80;99.90;;;;;;4944845;29;20475;-86
2021/06/09 03:37:08;;;;;;;24.00;21.00;;;20.90;99.90;;;;;;4949065;29;20452;-85
2021/06/09 03:39:36;;;;;;;22.70;20.30;;;20.80;99.90;;;;;;4959804;28;20439;-84
2021/06/09 03:42:03;;;;;;;22.77;20.40;;;20.80;99.90;;;;;;4953014;29;20454;-85
2021/06/09 03:44:44;;;;;;;22.20;19.93;;;20.70;99.90;;;;;;4949103;28;20810;-85
2021/06/09 03:47:12;;;;;;;23.33;20.20;;;20.70;99.90;;;;;;4949725;28;20471;-83
2021/06/09 03:49:39;;;;;;;20.70;18.70;;;20.90;99.90;;;;;;4944399;28;20466;-83
2021/06/09 03:52:09;;;;;;;23.83;21.30;;;20.70;99.90;;;;;;4957698;29;20427;-83
2021/06/09 03:54:36;;;;;;;22.63;20.20;;;20.80;99.90;;;;;;4966128;29;20435;-85
2021/06/09 03:57:02;;;;;;;24.10;21.20;;;20.90;99.90;;;;;;4957353;29;20469;-85
2021/06/09 03:59:29;;;;;;;23.53;21.07;;;21.00;99.90;;;;;;4957788;28;20471;-84
2021/06/09 04:01:57;;;;;;;23.83;21.33;;;20.80;99.90;;;;;;4960932;29;20487;-84
2021/06/09 04:04:27;;;;;;;25.60;22.27;;;20.60;99.90;;;;;;4955005;29;20736;-85
2021/06/09 04:06:56;;;;;;;28.10;23.00;;;20.30;99.90;;;;;;4955649;29;20453;-84
2021/06/09 04:09:23;;;;;;;23.47;20.43;;;20.50;99.90;;;;;;4968821;28;20470;-83
2021/06/09 04:11:53;;;;;;;25.10;21.80;;;20.40;99.90;;;;;;4961282;29;20440;-83
2021/06/09 04:14:22;;;;;;;23.67;21.20;;;20.60;99.90;;;;;;4956612;28;20407;-83
2021/06/09 04:16:50;;;;;;;23.23;20.83;;;20.40;99.90;;;;;;4962824;29;20418;-84
2021/06/09 04:19:20;;;;;;;24.10;20.97;;;20.40;99.90;;;;;;4953212;29;20451;-81
2021/06/09 04:21:46;;;;;;;25.07;22.43;;;20.40;99.90;;;;;;4952770;29;20442;-83
2021/06/09 04:24:12;;;;;;;24.57;21.93;;;20.10;99.90;;;;;;4957714;28;20491;-83
2021/06/09 04:26:40;;;;;;;26.60;23.90;;;20.00;99.90;;;;;;4949296;28;20200;-84
2021/06/09 04:29:08;;;;;;;25.63;23.03;;;20.00;99.90;;;;;;4944310;28;20198;-83
2021/06/09 04:31:34;;;;;;;27.90;24.70;;;20.20;99.90;;;;;;4946949;29;20788;-83
2021/06/09 04:34:00;;;;;;;27.13;24.20;;;20.10;99.90;;;;;;4927741;29;20511;-83
2021/06/09 04:36:26;;;;;;;26.17;23.43;;;20.00;99.90;;;;;;4946688;28;20828;-83
2021/06/09 04:38:53;;;;;;;28.57;23.67;;;20.10;99.90;;;;;;4953059;29;20446;-85
2021/06/09 04:41:20;;;;;;;29.83;25.03;;;20.10;99.90;;;;;;4950567;28;20451;-83
2021/06/09 04:43:47;;;;;;;27.50;24.60;;;19.80;99.90;;;;;;4957598;29;20438;-83
2021/06/09 04:54:01;;;;;;;29.83;24.07;;;20.00;99.90;;;;;;5009609;22;20906;-80
2021/06/09 04:56:31;;;;;;;28.00;23.40;;;20.20;99.90;;;;;;4958516;28;20461;-81
2021/06/09 04:59:02;;;;;;;26.97;24.07;;;20.50;99.90;;;;;;4960465;28;20692;-82
2021/06/09 05:01:28;;;;;;;27.67;24.37;;;20.40;99.90;;;;;;4958654;28;20454;-84
2021/06/09 05:03:55;;;;;;;26.43;23.63;;;20.50;99.90;;;;;;4960370;28;20490;-81
2021/06/09 05:06:21;;;;;;;26.80;24.00;;;20.50;99.90;;;;;;4958693;28;20493;-83
2021/06/09 05:08:47;;;;;;;29.43;25.67;;;20.60;99.90;;;;;;4962032;28;20885;-83
2021/06/09 05:11:19;;;;;;;26.70;22.97;;;20.70;99.90;;;;;;4963086;28;20237;-83
2021/06/09 05:13:45;;;;;;;29.00;23.03;;;20.50;99.90;;;;;;4960608;28;20438;-82
2021/06/09 05:16:14;;;;;;;28.53;25.47;;;20.70;99.90;;;;;;4965533;28;20458;-82
2021/06/09 05:18:43;;;;;;;26.67;23.80;;;20.50;99.90;;;;;;4961197;28;20431;-82
2021/06/09 05:21:09;;;;;;;32.47;25.30;;;20.40;99.90;;;;;;4961285;28;20536;-82
2021/06/09 05:23:41;;;;;;;28.57;25.53;;;20.30;99.90;;;;;;4959516;28;20453;-82
2021/06/09 05:26:10;;;;;;;25.87;23.23;;;20.50;99.90;;;;;;4958383;28;20850;-82
2021/06/09 05:28:45;;;;;;;26.37;23.60;;;20.60;99.90;;;;;;4961732;28;20447;-80
2021/06/09 05:31:12;;;;;;;34.10;24.90;;;20.50;99.90;;;;;;4957598;28;20484;-81
2021/06/09 05:33:38;;;;;;;27.00;23.30;;;20.60;99.90;;;;;;4960945;28;20445;-84
2021/06/09 05:36:04;;;;;;;26.17;23.20;;;20.70;99.90;;;;;;4961370;28;20462;-84
2021/06/09 05:38:30;;;;;;;27.03;22.90;;;20.80;99.90;;;;;;4959424;28;20438;-81
2021/06/09 05:40:58;;;;;;;26.90;23.73;;;20.70;99.90;;;;;;4959178;28;20918;-82
2021/06/09 05:43:25;;;;;;;26.77;23.90;;;20.70;99.90;;;;;;4962017;28;20434;-81
2021/06/09 05:45:52;;;;;;;26.47;22.10;;;20.50;99.90;;;;;;4957889;28;20470;-81
2021/06/09 05:48:18;;;;;;;26.60;23.13;;;20.70;99.90;;;;;;4960444;28;20450;-81
2021/06/09 05:50:50;;;;;;;26.10;23.30;;;20.60;99.90;;;;;;4958016;28;20554;-80
2021/06/09 05:53:17;;;;;;;25.03;22.47;;;20.70;99.90;;;;;;4957272;28;20909;-78
2021/06/09 05:55:46;;;;;;;26.00;23.27;;;20.70;99.90;;;;;;4960086;28;20528;-83
2021/06/09 05:58:16;;;;;;;24.20;21.60;;;20.60;99.90;;;;;;4959088;28;20526;-82
2021/06/09 06:00:42;;;;;;;30.43;24.63;;;20.60;99.90;;;;;;4958020;28;21264;-80
2021/06/09 06:03:08;;;;;;;27.60;24.70;;;20.30;99.90;;;;;;4960278;28;20427;-83
2021/06/09 06:05:36;;;;;;;26.27;22.93;;;20.30;99.90;;;;;;4961823;28;20854;-80
2021/06/09 06:08:02;;;;;;;25.20;21.70;;;20.30;99.90;;;;;;4960841;28;20562;-83
2021/06/09 06:10:28;;;;;;;22.93;20.50;;;20.40;99.90;;;;;;4950609;28;20493;-82
2021/06/09 06:12:57;;;;;;;21.17;18.97;;;20.40;99.90;;;;;;4961003;28;20935;-83
2021/06/09 06:15:24;;;;;;;21.90;19.20;;;20.50;99.90;;;;;;4957329;28;20461;-83
2021/06/09 06:17:50;;;;;;;19.60;17.70;;;20.40;99.90;;;;;;4960501;28;20560;-80
2021/06/09 06:20:20;;;;;;;20.63;18.43;;;20.40;99.90;;;;;;4959679;28;20541;-79
2021/06/09 06:22:47;;;;;;;20.33;18.33;;;20.10;99.90;;;;;;4956076;28;20214;-80
2021/06/09 06:25:17;;;;;;;20.57;18.47;;;20.00;99.90;;;;;;4959916;28;20494;-82
2021/06/09 06:27:47;;;;;;;20.60;18.50;;;20.20;99.90;;;;;;4957585;28;20457;-82
2021/06/09 06:30:17;;;;;;;18.80;16.90;;;20.20;99.90;;;;;;4962398;28;20731;-82
2021/06/09 06:32:46;;;;;;;24.67;17.50;;;20.20;99.90;;;;;;4959633;28;20526;-79
2021/06/09 06:35:13;;;;;;;20.20;18.07;;;20.10;99.90;;;;;;4958331;28;20458;-79
2021/06/09 06:37:41;;;;;;;20.87;17.60;;;20.10;99.90;;;;;;4956584;28;20505;-83
2021/06/09 06:40:08;;;;;;;19.93;17.97;;;20.10;99.90;;;;;;4956234;28;20454;-82
2021/06/09 06:42:34;;;;;;;19.40;17.40;;;20.20;99.90;;;;;;4957507;28;20713;-82
2021/06/09 06:45:02;;;;;;;20.13;18.00;;;20.30;99.90;;;;;;4965239;28;20449;-81
2021/06/09 06:47:29;;;;;;;20.20;18.13;;;20.40;99.90;;;;;;4958385;28;20497;-84
2021/06/09 06:49:57;;;;;;;22.83;20.13;;;20.30;99.90;;;;;;4956235;28;20470;-81
2021/06/09 06:52:31;;;;;;;22.93;18.57;;;20.40;99.90;;;;;;4954389;28;20458;-81
2021/06/09 06:55:02;;;;;;;20.97;18.70;;;20.50;99.90;;;;;;4957094;28;20449;-82
2021/06/09 06:57:32;;;;;;;22.30;18.00;;;20.50;99.90;;;;;;4957590;28;20457;-81
2021/06/09 07:00:00;;;;;;;25.23;20.30;;;20.50;99.90;;;;;;4956707;28;20717;-83
2021/06/09 07:02:26;;;;;;;20.77;18.70;;;20.60;99.90;;;;;;4938814;28;20516;-83
2021/06/09 07:04:52;;;;;;;24.83;18.70;;;20.70;99.90;;;;;;4963058;28;20592;-84
2021/06/09 07:07:18;;;;;;;19.17;17.23;;;20.70;99.90;;;;;;4958414;28;20469;-81
2021/06/09 07:09:44;;;;;;;20.83;18.07;;;20.80;99.90;;;;;;4958886;28;20886;-81
2021/06/09 07:12:10;;;;;;;20.10;18.10;;;20.80;99.90;;;;;;4957347;28;20430;-82
2021/06/09 07:14:38;;;;;;;21.20;18.83;;;21.00;99.90;;;;;;4962946;28;20912;-82
2021/06/09 07:17:04;;;;;;;20.57;18.07;;;21.00;99.90;;;;;;4964604;28;20584;-80
2021/06/09 07:19:30;;;;;;;21.10;18.80;;;21.00;99.90;;;;;;4956691;28;20533;-83
2021/06/09 07:21:56;;;;;;;22.27;19.90;;;21.20;99.90;;;;;;4957746;28;20211;-80
2021/06/09 07:24:22;;;;;;;21.17;19.07;;;21.10;99.90;;;;;;4963817;28;21807;-81
2021/06/09 07:26:49;;;;;;;20.63;18.43;;;21.10;99.90;;;;;;4956577;28;20486;-82
2021/06/09 07:29:24;;;;;;;20.33;18.27;;;21.10;99.90;;;;;;4959437;28;20317;-80
2021/06/09 07:31:50;;;;;;;19.70;17.70;;;21.10;99.90;;;;;;4961938;28;20524;-81
2021/06/09 07:34:17;;;;;;;22.53;20.10;;;21.20;99.90;;;;;;4959240;28;20434;-80
2021/06/09 07:36:43;;;;;;;22.00;19.70;;;21.30;99.90;;;;;;4958220;28;20532;-82
2021/06/09 07:39:17;;;;;;;22.50;19.47;;;21.30;99.90;;;;;;4960798;28;20453;-82
2021/06/09 07:41:44;;;;;;;21.93;19.83;;;21.40;99.90;;;;;;4962449;28;20435;-82
2021/06/09 07:44:11;;;;;;;21.80;19.23;;;21.50;99.90;;;;;;4958156;28;20455;-79
2021/06/09 07:46:39;;;;;;;21.20;18.23;;;21.70;99.90;;;;;;4959552;28;20482;-78
2021/06/09 07:49:08;;;;;;;22.67;20.27;;;21.90;99.90;;;;;;4959605;28;20500;-79
2021/06/09 07:51:34;;;;;;;21.90;19.60;;;21.80;99.90;;;;;;4957401;28;20526;-80
2021/06/09 07:54:01;;;;;;;24.90;20.80;;;21.80;99.90;;;;;;4972581;28;20585;-82
2021/06/09 07:56:35;;;;;;;24.10;21.63;;;21.90;99.90;;;;;;4956096;28;20810;-81
2021/06/09 07:59:03;;;;;;;23.03;20.63;;;21.80;99.90;;;;;;4960642;28;20972;-80
2021/06/09 08:01:30;;;;;;;24.20;21.10;;;22.00;99.90;;;;;;4960505;28;20492;-79
2021/06/09 08:03:57;;;;;;;23.67;19.90;;;22.10;99.90;;;;;;4960079;28;20445;-80
2021/06/09 08:06:24;;;;;;;25.80;23.03;;;22.20;99.90;;;;;;4959433;28;20535;-80
2021/06/09 08:08:51;;;;;;;23.87;20.23;;;22.00;99.90;;;;;;4960114;28;20461;-80
2021/06/09 08:11:18;;;;;;;24.93;20.67;;;22.10;99.90;;;;;;4959833;28;20497;-79
2021/06/09 08:13:44;;;;;;;30.50;21.70;;;22.30;99.90;;;;;;4960941;28;20438;-83
2021/06/09 08:16:12;;;;;;;24.00;21.57;;;22.40;99.90;;;;;;4956836;28;20494;-81
2021/06/09 08:18:37;;;;;;;26.30;21.87;;;22.40;99.90;;;;;;4961894;28;20469;-80
2021/06/09 08:21:07;;;;;;;23.50;20.37;;;22.50;99.90;;;;;;4961895;28;20481;-79
2021/06/09 08:23:34;;;;;;;22.03;19.80;;;22.60;99.90;;;;;;4963848;28;20191;-80
2021/06/09 08:26:00;;;;;;;23.73;21.17;;;22.80;99.90;;;;;;4961727;28;20470;-80
2021/06/09 08:28:26;;;;;;;22.93;20.10;;;22.70;99.90;;;;;;4962352;28;20446;-82
2021/06/09 08:30:51;;;;;;;24.87;22.27;;;22.70;99.90;;;;;;4960172;28;20465;-81
2021/06/09 08:33:17;;;;;;;20.80;18.80;;;22.70;99.90;;;;;;4961793;28;20889;-81
2021/06/09 08:35:43;;;;;;;24.83;22.27;;;22.60;99.90;;;;;;4969498;28;20289;-80
2021/06/09 08:38:08;;;;;;;22.93;20.53;;;22.60;99.90;;;;;;4964340;28;20287;-82
2021/06/09 08:40:34;;;;;;;21.20;19.10;;;22.60;99.90;;;;;;4964028;28;20266;-82
2021/06/09 08:43:02;;;;;;;21.87;19.60;;;22.70;99.90;;;;;;4961363;28;20190;-82
2021/06/09 08:45:29;;;;;;;22.13;19.93;;;22.90;99.90;;;;;;4960116;28;20574;-83
2021/06/09 08:47:55;;;;;;;22.60;20.37;;;23.00;99.90;;;;;;4961486;28;21020;-80
2021/06/09 08:50:25;;;;;;;21.17;19.00;;;23.20;99.90;;;;;;4960891;28;20474;-80
2021/06/09 08:52:51;;;;;;;25.57;20.57;;;23.40;99.90;;;;;;4954395;28;20194;-80
2021/06/09 08:55:20;;;;;;;21.80;19.60;;;23.30;99.90;;;;;;4958648;28;20439;-79
2021/06/09 08:57:47;;;;;;;22.90;20.50;;;23.40;99.90;;;;;;4960065;28;20779;-81
2021/06/09 09:00:16;;;;;;;24.20;21.60;;;23.60;99.90;;;;;;4962345;28;20434;-81
2021/06/09 09:02:42;;;;;;;22.30;20.00;;;23.40;99.90;;;;;;4960121;28;20463;-81
2021/06/09 09:05:10;;;;;;;23.10;20.70;;;23.30;99.90;;;;;;4961404;28;20430;-82
2021/06/09 09:07:36;;;;;;;27.50;22.23;;;23.30;99.90;;;;;;4956618;28;20244;-81
2021/06/09 09:10:09;;;;;;;22.87;20.63;;;23.50;99.90;;;;;;4962368;28;20550;-83
2021/06/09 09:12:36;;;;;;;24.67;20.73;;;23.50;99.90;;;;;;4958685;28;20445;-81
2021/06/09 09:15:06;;;;;;;21.63;19.33;;;23.70;99.90;;;;;;4961331;28;21188;-82
2021/06/09 09:17:47;;;;;;;40.43;36.20;;;23.90;99.90;;;;;;4962709;28;20466;-83
2021/06/09 09:20:14;;;;;;;27.63;24.97;;;24.10;99.90;;;;;;4959615;28;20454;-82
2021/06/09 09:22:39;;;;;;;17.43;15.73;;;24.20;99.90;;;;;;4958354;28;20434;-81
2021/06/09 09:25:17;;;;;;;16.37;14.83;;;23.90;99.90;;;;;;4972315;28;20446;-82
2021/06/09 09:27:52;;;;;;;17.83;16.13;;;23.90;99.90;;;;;;4960887;28;20221;-81
2021/06/09 09:30:19;;;;;;;14.67;13.37;;;24.00;99.90;;;;;;4963129;28;20462;-80
2021/06/09 09:32:57;;;;;;;18.90;16.93;;;24.00;99.90;;;;;;4958267;28;20438;-82
2021/06/09 09:35:29;;;;;;;16.87;15.37;;;24.10;99.90;;;;;;4962132;28;20482;-82
2021/06/09 09:38:20;;;;;;;15.53;14.03;;;24.20;99.90;;;;;;4962684;28;20426;-84
2021/06/09 09:41:05;;;;;;;15.70;14.03;;;24.30;99.90;;;;;;4961300;28;20465;-83
2021/06/09 09:43:46;;;;;;;16.17;14.20;;;24.50;99.90;;;;;;4964235;28;20457;-83
2021/06/09 09:46:17;;;;;;;16.73;14.93;;;24.50;99.90;;;;;;4967107;28;20471;-82
2021/06/09 09:49:13;;;;;;;16.07;14.43;;;24.60;99.90;;;;;;4974385;28;20445;-82
2021/06/09 09:51:47;;;;;;;14.27;12.97;;;24.60;99.90;;;;;;4959329;28;20901;-82
2021/06/09 09:54:14;;;;;;;17.57;15.83;;;24.60;99.90;;;;;;4969003;28;20476;-81
2021/06/09 09:56:41;;;;;;;16.07;14.50;;;24.70;99.90;;;;;;4961503;28;20450;-81
2021/06/09 09:59:09;;;;;;;13.77;12.53;;;24.70;99.90;;;;;;4968316;28;20433;-81
2021/06/09 10:01:41;;;;;;;13.90;12.50;;;24.70;99.90;;;;;;4945380;28;21347;-82
2021/06/09 10:04:08;;;;;;;13.37;12.00;;;24.80;99.90;;;;;;4955611;28;20874;-82
2021/06/09 10:06:40;;;;;;;13.77;12.57;;;24.80;99.90;;;;;;4963724;28;20450;-80
2021/06/09 10:09:22;;;;;;;14.73;13.40;;;24.80;99.90;;;;;;4964590;28;20466;-79
2021/06/09 10:12:05;;;;;;;13.70;12.40;;;25.00;99.90;;;;;;4965709;28;20454;-84
2021/06/09 10:14:39;;;;;;;12.73;11.60;;;25.10;99.90;;;;;;4963543;28;20514;-83
2021/06/09 10:17:12;;;;;;;14.83;13.43;;;25.20;99.90;;;;;;4961816;28;20453;-82
2021/06/09 10:19:50;;;;;;;12.13;11.03;;;25.30;99.90;;;;;;4960961;28;20888;-81
2021/06/09 10:22:21;;;;;;;13.13;11.93;;;25.50;99.90;;;;;;4960247;28;20438;-80
2021/06/09 10:24:51;;;;;;;13.60;12.30;;;25.60;99.90;;;;;;4958851;28;20540;-83
2021/06/09 10:27:39;;;;;;;13.03;11.60;;;25.80;99.90;;;;;;4961057;28;20458;-82
2021/06/09 10:30:20;;;;;;;13.63;12.33;;;26.10;99.90;;;;;;4955527;28;20479;-82
2021/06/09 10:32:51;;;;;;;14.53;13.23;;;26.10;99.90;;;;;;4962560;28;20469;-82
2021/06/09 10:35:18;;;;;;;16.30;13.80;;;26.20;99.90;;;;;;4961561;28;20447;-83
2021/06/09 10:37:46;;;;;;;14.57;13.20;;;26.30;99.90;;;;;;4961534;28;20442;-81
2021/06/09 10:40:15;;;;;;;14.57;13.17;;;26.50;99.90;;;;;;4973771;28;20435;-80
2021/06/09 10:42:43;;;;;;;12.73;11.50;;;26.60;99.90;;;;;;4962230;28;20446;-82
2021/06/09 10:45:10;;;;;;;11.97;10.90;;;26.40;99.90;;;;;;4965817;28;20450;-83
2021/06/09 10:47:37;;;;;;;12.33;11.13;;;26.60;99.90;;;;;;4961474;28;21182;-84
2021/06/09 10:50:07;;;;;;;11.70;10.70;;;26.80;99.90;;;;;;4956894;28;20474;-81
2021/06/09 10:52:33;;;;;;;11.30;10.30;;;27.00;99.90;;;;;;4961101;28;20541;-83
2021/06/09 10:54:59;;;;;;;12.63;11.53;;;26.90;99.90;;;;;;4965622;28;20458;-80
2021/06/09 10:57:26;;;;;;;12.00;11.00;;;27.30;99.90;;;;;;4969294;28;20206;-79
2021/06/09 10:59:52;;;;;;;12.87;11.70;;;27.50;99.90;;;;;;4969863;28;20601;-81
2021/06/09 11:02:20;;;;;;;12.37;11.33;;;27.80;99.90;;;;;;4965221;28;20483;-80
2021/06/09 11:04:49;;;;;;;11.27;10.17;;;27.90;99.90;;;;;;4954905;28;20244;-80
2021/06/09 11:07:38;;;;;;;11.40;10.27;;;27.50;99.90;;;;;;4962382;28;20469;-81
2021/06/09 11:10:10;;;;;;;11.60;10.70;;;27.30;99.90;;;;;;4962562;28;20481;-82
2021/06/09 11:12:41;;;;;;;12.13;11.03;;;27.50;99.90;;;;;;4964625;28;20529;-83
2021/06/09 11:15:13;;;;;;;12.03;11.03;;;27.50;99.90;;;;;;4962098;28;20441;-83
2021/06/09 11:17:50;;;;;;;11.10;10.10;;;27.50;99.90;;;;;;4964056;28;20488;-82
2021/06/09 11:20:21;;;;;;;11.50;10.60;;;27.30;99.90;;;;;;4965045;28;20449;-81
2021/06/09 11:22:52;;;;;;;12.83;11.63;;;27.20;99.90;;;;;;4962113;28;20500;-80
2021/06/09 11:25:28;;;;;;;11.57;10.57;;;27.20;99.90;;;;;;4959589;28;20449;-81
2021/06/09 11:28:22;;;;;;;12.23;11.13;;;27.10;99.90;;;;;;4962443;28;20558;-81
2021/06/09 11:30:53;;;;;;;12.50;11.40;;;27.00;99.90;;;;;;4952473;28;20505;-80
2021/06/09 11:33:42;;;;;;;12.50;11.40;;;26.80;99.90;;;;;;4961142;28;20525;-79
2021/06/09 11:36:20;;;;;;;11.63;10.63;;;26.70;99.90;;;;;;4963844;28;20478;-80
2021/06/09 11:38:47;;;;;;;11.53;10.53;;;26.80;99.90;;;;;;4968884;28;20454;-80
2021/06/09 11:41:18;;;;;;;11.43;10.43;;;26.70;99.90;;;;;;4972882;28;20430;-80
2021/06/09 11:43:46;;;;;;;10.43;9.43;;;26.70;99.90;;;;;;4959386;28;20516;-82
2021/06/09 11:46:18;;;;;;;9.70;8.80;;;26.60;99.90;;;;;;4957970;28;20469;-79
2021/06/09 11:48:54;;;;;;;10.70;9.80;;;26.70;99.90;;;;;;4964838;28;20435;-83
2021/06/09 11:51:51;;;;;;;11.73;10.70;;;26.70;99.90;;;;;;4965855;28;20478;-82
2021/06/09 11:54:28;;;;;;;10.70;9.90;;;26.60;99.90;;;;;;4966391;28;20449;-79
2021/06/09 11:56:58;;;;;;;11.43;10.23;;;26.60;99.90;;;;;;4964252;28;20473;-81
2021/06/09 11:59:30;;;;;;;15.13;10.50;;;26.70;99.90;;;;;;4963205;28;20494;-81
2021/06/09 12:01:59;;;;;;;11.83;10.83;;;26.70;99.90;;;;;;4962065;28;20848;-82
2021/06/09 12:04:38;;;;;;;11.53;10.43;;;26.60;99.90;;;;;;4959662;28;20561;-80
2021/06/09 12:07:07;;;;;;;11.60;10.47;;;26.40;99.90;;;;;;4959198;28;20520;-78
2021/06/09 12:18:35;;;;;;;13.03;11.93;;;26.50;99.90;;;;;;5013541;23;20498;-65
2021/06/09 12:21:05;;;;;;;12.90;11.70;;;26.90;99.90;;;;;;4971374;22;21034;-86
2021/06/09 12:23:31;;;;;;;14.57;13.17;;;27.30;99.90;;;;;;4958839;28;20510;-87
2021/06/09 12:25:57;;;;;;;14.00;12.73;;;27.60;99.90;;;;;;4932782;28;20997;-85
2021/06/09 12:28:23;;;;;;;12.60;11.40;;;27.80;99.90;;;;;;4962103;28;20457;-85
2021/06/09 12:30:58;;;;;;;16.07;14.57;;;28.00;99.90;;;;;;4947627;28;20489;-84
2021/06/09 12:33:41;;;;;;;15.90;14.50;;;28.40;99.90;;;;;;4952899;28;20182;-84
2021/06/09 12:36:13;;;;;;;14.63;13.33;;;29.10;99.90;;;;;;4952540;28;20449;-83
2021/06/09 12:38:39;;;;;;;15.90;14.40;;;30.10;99.90;;;;;;4952537;28;20434;-83
2021/06/09 12:41:10;;;;;;;15.03;13.73;;;31.30;99.90;;;;;;4968847;28;20439;-83
2021/06/09 12:43:40;;;;;;;12.70;11.60;;;32.70;99.90;;;;;;4951372;28;20525;-83
2021/06/09 12:46:06;;;;;;;13.00;11.80;;;34.00;99.90;;;;;;4956772;28;20940;-84
2021/06/09 12:48:37;;;;;;;11.40;10.50;;;35.30;99.90;;;;;;4956866;28;20435;-84
2021/06/09 12:51:04;;;;;;;11.87;10.83;;;36.30;98.60;;;;;;4954456;28;20469;-82
2021/06/09 12:53:33;;;;;;;11.00;10.20;;;37.50;92.90;;;;;;4955984;28;20562;-83
2021/06/09 12:56:07;;;;;;;10.90;10.00;;;38.10;83.20;;;;;;4955013;28;20455;-82
2021/06/09 12:58:35;;;;;;;10.60;9.80;;;38.60;79.00;;;;;;4954688;28;20425;-82